Weather at Chuuk International Airport

Public forecast

Using degrees Celsius for public forecast. Weather courtesy of forecast.io.

Current aviation weather report (METAR) for Chuuk International Airport

2024/05/25 00:50 (retrieved 43 minutes ago)

PTKK 250050Z 04008G17KT 15SM SCT012CB BKN120 OVC280 31/27 A2984 RMK SLP101 T03120272

Closest aviation forecast (TAF) to Chuuk International Airport

Forecast is more than 6 hours old.

Closest forecast is Andersen Air Force Base, 549.1 nm (1,016.8 km) NW.

2024/05/24 18:12 (retrieved 7 hours ago)

TAF PGUA 241800Z 2418/2524 09010G15KT 9999 SCT010 BKN020 QNH2989INS TEMPO 2418/2502 6000 SHRA BKN012 TX30/2502Z TN26/2419Z